Chesterfield, Illinois
Current Conditions -  °F | °C
As of 11:55 AM on Saturday 22 Nov 2014 (Local Time) from K3LF Reporting Station
Overcast Overcast  
Wind Chill: 53°   Ceiling: 3000
Heat Index: 53°   Visibility: 10mi
Dew Point: 44°   Wind: 16mph
Humidity: 71%   Direction: 190°S
Pressure: 30.03"   Gusts: NA
Location:  39.26°N, 90.06°W
Report Text: K3LF 221755Z AUTO 19014KT 10SM OVC030 12/07 A3003 RMK AO2 6//// T01160065
Loading
Personal Weather Stations






























Interactive Weather Map New forecast layout! Learn more

10-Day Weather Forecast

Advertisements
Track Severe Weather on mobile